Time;durP1;ratioP1;P1;durP2;ratioP2;P2;SDS_P1;SDS_P2;PMS_P1;PMS_P2;Temp;Humidity;BMP_temperature;BMP_pressure;BME280_temperature;BME280_humidity;BME280_pressure;Samples;Min_cycle;Max_cycle;Signal;HPM_P1;HPM_P2
2022/09/08 00:00:44;;;;;;;7.47;3.58;;;;;;;21.94;54.59;100883.75;4953399;28;116134;-78
2022/09/08 00:03:14;;;;;;;9.38;3.20;;;;;;;21.85;54.82;100865.72;4944428;28;123983;-79
2022/09/08 00:05:53;;;;;;;7.20;3.67;;;;;;;21.78;55.29;100864.59;4946927;28;123728;-79
2022/09/08 00:08:21;;;;;;;10.13;3.20;;;;;;;21.73;55.54;100872.22;4939858;28;113518;-79
2022/09/08 00:10:50;;;;;;;10.77;3.85;;;;;;;21.70;55.74;100850.94;4942742;28;112174;-79
2022/09/08 00:13:18;;;;;;;7.47;3.60;;;;;;;21.68;55.83;100823.28;4946176;28;124755;-79
2022/09/08 00:15:45;;;;;;;8.30;3.63;;;;;;;21.67;55.96;100813.50;4944651;28;124513;-80
2022/09/08 00:18:13;;;;;;;10.82;3.80;;;;;;;21.67;56.25;100818.91;4947268;28;114361;-79
2022/09/08 00:20:40;;;;;;;8.20;2.92;;;;;;;21.67;56.35;100813.50;4948430;28;114215;-79
2022/09/08 00:23:07;;;;;;;10.55;3.75;;;;;;;21.65;56.34;100807.41;4945168;28;123363;-79
2022/09/08 00:25:34;;;;;;;7.07;3.38;;;;;;;21.65;56.38;100797.47;4944916;28;125118;-79
2022/09/08 00:28:01;;;;;;;7.78;3.75;;;;;;;21.67;56.48;100797.31;4945575;28;113561;-79
2022/09/08 00:30:29;;;;;;;8.30;3.10;;;;;;;21.67;56.74;100808.09;4961872;28;112127;-79
2022/09/08 00:32:56;;;;;;;10.15;3.30;;;;;;;21.68;56.91;100809.78;4943193;28;124476;-79
2022/09/08 00:35:23;;;;;;;6.82;3.00;;;;;;;21.68;57.04;100823.28;4959890;28;121935;-79
2022/09/08 00:37:52;;;;;;;7.43;3.30;;;;;;;21.69;57.16;100823.13;4929696;28;114827;-79
2022/09/08 00:40:22;;;;;;;8.63;3.47;;;;;;;21.70;57.28;100818.59;4948967;28;113677;-78
2022/09/08 00:43:04;;;;;;;7.68;3.45;;;;;;;21.68;57.22;100815.19;4938493;28;124544;-79
2022/09/08 00:45:41;;;;;;;8.98;3.90;;;;;;;21.67;57.17;100808.09;4949985;28;123297;-80
2022/09/08 00:48:15;;;;;;;7.65;3.53;;;;;;;21.64;57.39;100787.66;4958128;28;115044;-80
2022/09/08 00:50:44;;;;;;;6.57;3.25;;;;;;;21.65;57.51;100783.16;4942733;28;115385;-80
2022/09/08 00:53:15;;;;;;;9.60;3.90;;;;;;;21.67;57.66;100778.47;4940144;28;124510;-80
2022/09/08 00:55:42;;;;;;;8.45;3.50;;;;;;;21.67;57.47;100781.16;4963355;28;124168;-79
2022/09/08 00:58:10;;;;;;;8.68;3.35;;;;;;;21.66;57.64;100763.25;4937173;28;113538;-79
2022/09/08 01:00:40;;;;;;;6.95;3.20;;;;;;;21.66;57.83;100774.91;4946199;28;113611;-80
2022/09/08 01:03:11;;;;;;;9.38;3.30;;;;;;;21.66;57.90;100779.44;4936771;28;122398;-80
2022/09/08 01:05:43;;;;;;;5.28;2.95;;;;;;;21.67;58.03;100791.94;4949343;28;123514;-80
2022/09/08 01:14:46;;;;;;;11.45;4.53;;;;;;;21.51;57.74;100765.53;4942828;28;123539;-79
2022/09/08 01:17:36;;;;;;;9.40;4.28;;;;;;;21.46;57.94;100768.66;4952610;28;124552;-78
2022/09/08 01:20:07;;;;;;;7.53;3.63;;;;;;;21.42;57.75;100751.06;4951782;28;113891;-80
2022/09/08 01:23:09;;;;;;;10.70;4.10;;;;;;;21.37;57.87;100758.72;4941894;28;113409;-79
2022/09/08 01:25:55;;;;;;;6.35;3.58;;;;;;;21.32;57.84;100756.44;4946738;28;124113;-79
2022/09/08 01:28:40;;;;;;;7.93;3.65;;;;;;;21.27;58.08;100763.25;4943289;28;123001;-79
2022/09/08 01:31:07;;;;;;;7.70;3.70;;;;;;;21.25;58.21;100759.81;4941910;28;114196;-78
2022/09/08 01:33:34;;;;;;;7.57;3.80;;;;;;;21.20;58.04;100758.41;4936726;28;113816;-79
2022/09/08 01:36:13;;;;;;;11.00;3.80;;;;;;;21.18;58.21;100757.69;4947840;28;123358;-79
2022/09/08 01:38:41;;;;;;;10.80;3.80;;;;;;;21.16;58.09;100746.22;4939619;28;124137;-79
2022/09/08 01:41:09;;;;;;;7.53;3.50;;;;;;;21.14;58.33;100750.91;4942895;28;114336;-79
2022/09/08 01:43:36;;;;;;;9.05;4.00;;;;;;;21.12;58.17;100750.19;4959635;28;113834;-78
2022/09/08 01:46:03;;;;;;;7.53;3.55;;;;;;;21.07;58.26;100736.28;4941937;28;124119;-79
2022/09/08 01:48:31;;;;;;;12.00;3.60;;;;;;;21.02;58.39;100738.56;4945297;28;124025;-78
2022/09/08 01:51:00;;;;;;;9.55;3.50;;;;;;;20.98;58.39;100731.72;4940812;28;114524;-79
2022/09/08 01:53:28;;;;;;;7.22;3.42;;;;;;;20.92;58.43;100718.84;4937272;28;113312;-78
2022/09/08 01:55:55;;;;;;;6.80;3.28;;;;;;;20.87;58.37;100713.00;4937459;28;124214;-78
2022/09/08 01:58:22;;;;;;;6.88;3.45;;;;;;;20.81;58.34;100714.41;4942162;28;123930;-79
2022/09/08 02:00:49;;;;;;;6.45;3.22;;;;;;;20.79;58.57;100719.09;4939645;28;114306;-78
2022/09/08 02:03:16;;;;;;;6.70;3.05;;;;;;;20.77;58.73;100719.22;4958252;28;113586;-78
2022/09/08 02:05:44;;;;;;;7.78;3.28;;;;;;;20.76;58.67;100722.91;4944575;28;124326;-78
2022/09/08 02:08:12;;;;;;;6.20;2.47;;;;;;;20.75;58.83;100726.59;4944858;28;123019;-79
2022/09/08 02:10:39;;;;;;;10.38;3.28;;;;;;;20.75;58.83;100726.59;4941389;28;113725;-79
2022/09/08 02:13:07;;;;;;;8.05;3.00;;;;;;;20.75;58.71;100721.19;4939492;28;113815;-79
2022/09/08 02:15:38;;;;;;;8.75;3.05;;;;;;;20.75;58.94;100715.81;4935189;28;124586;-79
2022/09/08 02:18:05;;;;;;;5.57;2.72;;;;;;;20.74;58.96;100703.38;4953291;28;123666;-80
2022/09/08 02:20:32;;;;;;;5.68;3.00;;;;;;;20.73;58.73;100701.66;4946087;28;113721;-79
2022/09/08 02:22:59;;;;;;;5.85;2.92;;;;;;;20.71;58.80;100703.63;4940093;28;113273;-79
2022/09/08 02:25:26;;;;;;;10.15;2.60;;;;;;;20.69;59.01;100710.16;4933134;28;123190;-79
2022/09/08 02:27:53;;;;;;;6.28;2.60;;;;;;;20.67;59.09;100696.84;4945024;28;124734;-79
2022/09/08 02:30:22;;;;;;;5.95;2.53;;;;;;;20.68;59.12;100678.84;4939585;28;115149;-79
2022/09/08 02:32:49;;;;;;;7.25;2.30;;;;;;;20.69;58.99;100683.25;4922109;28;115233;-79
2022/09/08 02:35:17;;;;;;;10.20;2.38;;;;;;;20.69;59.01;100688.63;4949187;28;122902;-78
2022/09/08 02:37:44;;;;;;;6.00;2.38;;;;;;;20.69;58.93;100689.47;4943455;28;123116;-79
2022/09/08 02:40:12;;;;;;;5.53;2.45;;;;;;;20.71;58.87;100671.34;4940711;28;114337;-78
2022/09/08 02:42:39;;;;;;;5.03;2.08;;;;;;;20.72;58.87;100662.28;4941229;28;113743;-78
2022/09/08 02:45:08;;;;;;;8.60;2.42;;;;;;;20.72;59.15;100662.28;4960232;28;123524;-79
2022/09/08 02:47:35;;;;;;;7.10;2.60;;;;;;;20.73;59.04;100669.34;4938397;28;123413;-79
2022/09/08 02:50:03;;;;;;;4.65;2.10;;;;;;;20.75;59.10;100667.38;4937399;28;114293;-78
2022/09/08 02:52:30;;;;;;;4.78;2.00;;;;;;;20.76;59.32;100663.69;4938031;28;113379;-78
2022/09/08 02:54:58;;;;;;;5.95;2.00;;;;;;;20.78;59.08;100661.72;4954718;28;124160;-79
2022/09/08 02:57:25;;;;;;;5.03;2.17;;;;;;;20.80;59.01;100659.75;4938391;28;122131;-80
2022/09/08 02:59:52;;;;;;;5.00;2.10;;;;;;;20.80;59.10;100659.75;4937662;28;112433;-79
2022/09/08 03:02:19;;;;;;;5.47;2.03;;;;;;;20.81;59.02;100660.56;4941681;28;113833;-78
2022/09/08 03:04:46;;;;;;;6.00;2.10;;;;;;;20.80;59.33;100665.13;4937662;28;124037;-79
2022/09/08 03:07:13;;;;;;;5.28;2.10;;;;;;;20.82;59.38;100669.53;4933075;28;123962;-80
2022/09/08 03:09:40;;;;;;;6.82;2.10;;;;;;;20.84;59.38;100670.22;4939791;28;114669;-79
2022/09/08 03:12:07;;;;;;;4.75;2.05;;;;;;;20.88;59.39;100666.28;4944654;28;114521;-80
2022/09/08 03:14:34;;;;;;;4.45;2.38;;;;;;;20.89;59.46;100674.22;4935137;28;123390;-79
2022/09/08 03:17:02;;;;;;;4.50;2.20;;;;;;;20.92;59.44;100675.75;4942454;28;124965;-79
2022/09/08 03:19:29;;;;;;;5.38;2.30;;;;;;;20.93;59.61;100680.16;4944956;28;115007;-79
2022/09/08 03:21:56;;;;;;;6.35;2.35;;;;;;;20.93;59.45;100669.41;4940704;28;115704;-79
2022/09/08 03:24:23;;;;;;;6.35;2.50;;;;;;;20.90;59.06;100653.50;4935969;28;124076;-79
2022/09/08 03:26:50;;;;;;;5.68;2.75;;;;;;;20.88;59.50;100660.88;4936785;28;123879;-79
2022/09/08 03:29:17;;;;;;;6.38;2.55;;;;;;;20.86;59.62;100654.78;4952755;28;113960;-78
2022/09/08 03:31:45;;;;;;;6.82;2.60;;;;;;;20.84;59.54;100654.09;4953020;28;113129;-80
2022/09/08 03:34:12;;;;;;;4.13;2.70;;;;;;;20.84;59.40;100664.84;4940835;28;122280;-79
2022/09/08 03:36:39;;;;;;;5.25;2.50;;;;;;;20.85;59.60;100663.84;4956070;28;123667;-81
2022/09/08 03:39:06;;;;;;;6.10;2.70;;;;;;;20.85;59.53;100663.84;4940859;28;114023;-80
2022/09/08 03:41:33;;;;;;;7.28;2.78;;;;;;;20.83;59.63;100663.13;4939235;28;113139;-80
2022/09/08 03:44:01;;;;;;;7.53;2.97;;;;;;;20.80;59.78;100653.50;4939446;28;124111;-80
2022/09/08 03:46:32;;;;;;;7.78;3.20;;;;;;;20.77;59.77;100654.63;4942816;28;125484;-80
2022/09/08 03:49:00;;;;;;;8.38;3.28;;;;;;;20.75;59.76;100656.59;4939443;28;114444;-78
2022/09/08 03:51:27;;;;;;;11.52;3.08;;;;;;;20.73;59.92;100658.59;4939642;28;113940;-78
2022/09/08 03:54:46;;;;;;;8.30;3.28;;;;;;;20.72;59.96;100667.66;4919720;28;123666;-78
2022/09/08 03:56:49;;;;;;;6.20;3.45;;;;;;;20.70;59.86;100675.03;4940948;28;123338;-79
2022/09/08 03:59:16;;;;;;;8.82;3.45;;;;;;;20.68;59.85;100685.09;4933193;28;114305;-78
2022/09/08 04:01:44;;;;;;;7.47;3.20;;;;;;;20.70;59.74;100690.31;4936169;28;113761;-79
2022/09/08 04:04:11;;;;;;;5.00;2.95;;;;;;;20.69;59.97;100689.47;4942032;28;124690;-78
2022/09/08 04:06:39;;;;;;;7.57;3.50;;;;;;;20.71;59.99;100698.25;4957028;28;122351;-79
2022/09/08 04:09:06;;;;;;;4.85;3.22;;;;;;;20.70;59.91;100691.19;4953542;28;115522;-78
2022/09/08 04:11:34;;;;;;;5.32;3.28;;;;;;;20.69;60.07;100689.47;4934578;28;114616;-79
2022/09/08 04:14:02;;;;;;;6.43;3.17;;;;;;;20.67;59.93;100690.59;4920341;28;123419;-79
2022/09/08 04:16:30;;;;;;;4.75;2.83;;;;;;;20.65;60.04;100688.06;4935312;28;123055;-78
2022/09/08 04:18:57;;;;;;;7.55;3.38;;;;;;;20.64;59.85;100677.41;4940399;28;114457;-79
2022/09/08 04:21:24;;;;;;;8.93;3.22;;;;;;;20.61;59.88;100670.47;4924910;28;112904;-79
2022/09/08 04:23:51;;;;;;;6.22;3.40;;;;;;;20.61;60.13;100673.19;4952501;28;123148;-79
2022/09/08 04:26:18;;;;;;;8.60;3.33;;;;;;;20.59;59.68;100683.19;4949340;28;123887;-79
2022/09/08 04:28:46;;;;;;;6.97;3.22;;;;;;;20.58;60.07;100689.56;4947296;28;114480;-79
2022/09/08 04:31:15;;;;;;;8.18;3.60;;;;;;;20.56;60.23;100694.22;4940932;28;113903;-80
2022/09/08 04:33:43;;;;;;;8.15;3.53;;;;;;;20.55;60.16;100697.88;4948045;28;123852;-79
2022/09/08 04:36:16;;;;;;;7.22;3.60;;;;;;;20.54;60.38;100706.97;4922966;28;123195;-80
2022/09/08 04:38:59;;;;;;;9.50;3.38;;;;;;;20.55;60.34;100703.28;4961552;28;113044;-80
2022/09/08 04:41:28;;;;;;;8.65;3.38;;;;;;;20.54;60.28;100697.03;4955400;28;113390;-80
2022/09/08 04:43:56;;;;;;;6.10;3.25;;;;;;;20.54;60.24;100706.97;4948014;28;124866;-79
2022/09/08 04:46:23;;;;;;;7.80;3.35;;;;;;;20.55;60.47;100704.16;4948515;28;123933;-80
2022/09/08 04:48:50;;;;;;;7.45;3.40;;;;;;;20.53;60.30;100711.50;4944549;28;112485;-80
2022/09/08 04:51:19;;;;;;;4.32;3.13;;;;;;;20.54;60.57;100706.97;4959135;28;113882;-79
2022/09/08 04:53:47;;;;;;;8.57;3.50;;;;;;;20.55;60.51;100714.03;4946294;28;124646;-81
2022/09/08 04:56:15;;;;;;;8.90;3.72;;;;;;;20.54;60.47;100718.56;4945899;28;124157;-80
2022/09/08 04:58:43;;;;;;;8.27;3.22;;;;;;;20.56;60.58;100731.91;4951415;28;115522;-80
2022/09/08 05:01:14;;;;;;;5.40;3.20;;;;;;;20.56;60.64;100734.59;4945489;28;114003;-80
2022/09/08 05:03:41;;;;;;;8.48;3.67;;;;;;;20.55;60.67;100736.44;4962715;28;124288;-80
2022/09/08 05:06:11;;;;;;;9.43;3.58;;;;;;;20.56;60.67;100737.28;4945581;28;124090;-79
2022/09/08 05:08:40;;;;;;;7.53;3.80;;;;;;;20.58;60.62;100746.06;4954478;28;113299;-81
2022/09/08 05:11:07;;;;;;;7.10;3.85;;;;;;;20.57;60.52;100739.84;4945653;28;112900;-79
2022/09/08 05:13:34;;;;;;;7.35;3.70;;;;;;;20.58;60.74;100740.69;4948368;28;123518;-79
2022/09/08 05:16:14;;;;;;;7.45;3.45;;;;;;;20.57;60.72;100729.06;4946265;28;122681;-80
2022/09/08 05:18:45;;;;;;;9.35;3.72;;;;;;;20.61;60.86;100729.69;4945772;28;113035;-79
2022/09/08 05:21:12;;;;;;;6.32;3.33;;;;;;;20.63;60.72;100727.69;4943429;28;113933;-79
2022/09/08 05:23:40;;;;;;;8.20;3.92;;;;;;;20.64;60.80;100718.63;4949743;28;121881;-79
2022/09/08 05:26:10;;;;;;;7.75;3.95;;;;;;;20.65;61.02;100720.34;4950131;28;125041;-81
2022/09/08 05:28:39;;;;;;;8.15;4.03;;;;;;;20.67;60.93;100717.53;4963668;28;114060;-78
2022/09/08 05:31:11;;;;;;;7.28;3.50;;;;;;;20.67;60.86;100707.59;4948077;28;112667;-79
2022/09/08 05:33:39;;;;;;;6.90;3.70;;;;;;;20.68;60.89;100709.31;4975399;28;123889;-79
2022/09/08 05:36:15;;;;;;;6.72;3.40;;;;;;;20.67;61.06;100718.38;4963345;28;125883;-78
2022/09/08 05:38:43;;;;;;;6.97;3.65;;;;;;;20.67;60.94;100712.97;4941155;28;114588;-80
2022/09/08 05:41:11;;;;;;;6.75;3.85;;;;;;;20.68;60.93;100713.81;4936242;28;113171;-80
2022/09/08 05:43:39;;;;;;;7.88;4.00;;;;;;;20.68;60.93;100709.31;4944805;28;123958;-81
2022/09/08 05:46:08;;;;;;;7.47;4.00;;;;;;;20.69;61.01;100711.00;4934540;28;122083;-81
2022/09/08 05:48:35;;;;;;;13.68;4.85;;;;;;;20.69;60.97;100716.38;4931611;28;115178;-80
2022/09/08 05:51:09;;;;;;;9.88;3.95;;;;;;;20.69;61.10;100716.38;4920166;28;114523;-80
2022/09/08 05:53:37;;;;;;;10.73;4.50;;;;;;;20.70;60.95;100712.72;4934185;28;123179;-82
2022/09/08 05:56:07;;;;;;;7.68;3.58;;;;;;;20.70;61.13;100712.72;4917313;28;122062;-82
2022/09/08 05:58:34;;;;;;;6.32;3.97;;;;;;;20.70;60.99;100712.72;4917526;28;113680;-81
2022/09/08 06:01:13;;;;;;;8.25;3.78;;;;;;;20.68;61.10;100720.09;4935728;28;113503;-81
2022/09/08 06:03:40;;;;;;;9.15;4.10;;;;;;;20.69;61.25;100718.22;4945053;28;123925;-81
2022/09/08 06:06:10;;;;;;;7.95;3.70;;;;;;;20.69;61.30;100727.16;4938623;28;124911;-81
2022/09/08 06:08:40;;;;;;;7.25;4.00;;;;;;;20.69;61.19;100715.53;4943633;28;113771;-81
2022/09/08 06:11:08;;;;;;;8.45;4.28;;;;;;;20.67;61.18;100712.97;4938470;28;113566;-80
2022/09/08 06:13:36;;;;;;;7.43;3.92;;;;;;;20.68;61.16;100720.09;4937319;28;123943;-81
2022/09/08 06:16:09;;;;;;;6.75;3.88;;;;;;;20.69;61.37;100727.16;4935442;28;123883;-80
2022/09/08 06:18:39;;;;;;;8.07;3.72;;;;;;;20.69;61.39;100727.16;4955352;28;114256;-82
2022/09/08 06:21:09;;;;;;;6.50;3.53;;;;;;;20.69;61.44;100721.75;4955748;28;113360;-82
2022/09/08 06:23:36;;;;;;;7.78;3.72;;;;;;;20.69;61.19;100727.16;4954441;28;125360;-81
2022/09/08 06:26:28;;;;;;;7.00;3.72;;;;;;;20.67;61.40;100726.44;4933912;28;122861;-81
2022/09/08 06:29:10;;;;;;;5.30;3.65;;;;;;;20.67;61.21;100722.91;4943754;28;113802;-81
2022/09/08 06:31:51;;;;;;;5.45;3.30;;;;;;;20.65;61.42;100736.50;4937510;28;113639;-80
2022/09/08 06:34:24;;;;;;;5.18;3.33;;;;;;;20.65;61.47;100720.34;4936496;28;124155;-81
2022/09/08 06:36:59;;;;;;;6.90;3.33;;;;;;;20.66;61.53;100727.41;4939707;28;122659;-80
2022/09/08 06:39:32;;;;;;;6.97;3.47;;;;;;;20.66;61.51;100735.47;4951240;28;115519;-80
2022/09/08 06:42:09;;;;;;;6.68;3.28;;;;;;;20.66;61.57;100727.41;4947287;28;114662;-80
2022/09/08 06:44:41;;;;;;;8.40;3.65;;;;;;;20.67;61.38;100731.81;4936650;28;123888;-81
2022/09/08 06:47:16;;;;;;;7.28;3.70;;;;;;;20.69;61.63;100732.53;4939791;28;122268;-80
2022/09/08 06:49:47;;;;;;;8.40;3.50;;;;;;;20.68;61.44;100736.22;4949858;28;114573;-81
2022/09/08 06:52:37;;;;;;;6.40;3.40;;;;;;;20.70;61.55;100745.00;4949556;28;113939;-81
2022/09/08 06:55:56;;;;;;;5.88;3.95;;;;;;;20.68;61.52;100747.00;4946651;28;124363;-81
2022/09/08 06:58:44;;;;;;;7.20;4.05;;;;;;;20.68;61.18;100744.31;4951526;28;123531;-80
2022/09/08 07:01:32;;;;;;;8.50;4.03;;;;;;;20.67;61.64;100739.88;4952191;28;114286;-81
2022/09/08 07:04:33;;;;;;;6.57;3.60;;;;;;;20.66;61.52;100738.19;4954360;28;112830;-80
2022/09/08 07:07:19;;;;;;;6.80;3.60;;;;;;;20.64;61.68;100740.16;4941527;28;123351;-82
2022/09/08 07:09:46;;;;;;;;;;;;;;;20.63;61.18;100738.47;4958258;28;123980;-79
2022/09/08 07:12:23;;;;;;;6.35;3.70;;;;;;;20.65;61.60;100731.09;4945661;28;113671;-82
2022/09/08 07:15:03;;;;;;;8.88;3.92;;;;;;;20.66;61.73;100732.78;4925560;28;113090;-82
2022/09/08 07:17:45;;;;;;;8.32;4.07;;;;;;;20.68;61.82;100730.84;4933005;28;124551;-81
2022/09/08 07:20:13;;;;;;;8.07;3.95;;;;;;;20.70;61.71;100745.00;4951351;28;123683;-79
2022/09/08 07:23:03;;;;;;;7.70;4.53;;;;;;;20.71;61.83;100741.31;4968678;28;113603;-82
2022/09/08 07:25:35;;;;;;;9.30;4.72;;;;;;;20.73;62.01;100744.72;4937582;28;113253;-80
2022/09/08 07:28:18;;;;;;;7.47;4.05;;;;;;;20.76;61.84;100747.16;4951143;28;123814;-80
2022/09/08 07:30:54;;;;;;;8.15;4.30;;;;;;;20.79;62.17;100743.31;4942032;28;123669;-80
2022/09/08 07:33:27;;;;;;;11.50;4.68;;;;;;;20.82;61.93;100753.81;4952662;28;115672;-82
2022/09/08 07:36:07;;;;;;;9.00;4.53;;;;;;;20.87;62.37;100756.09;4951429;28;114330;-79
2022/09/08 07:38:42;;;;;;;12.48;5.07;;;;;;;20.90;62.32;100755.81;4950111;28;122358;-82
2022/09/08 07:41:16;;;;;;;8.13;4.65;;;;;;;20.95;62.23;100758.97;4951577;28;122961;-82
2022/09/08 07:43:44;;;;;;;9.60;4.78;;;;;;;20.97;62.28;100752.44;4954109;28;113342;-82
2022/09/08 07:46:24;;;;;;;8.30;5.15;;;;;;;21.01;62.44;100747.63;4954566;28;113982;-81
2022/09/08 07:49:23;;;;;;;7.65;5.15;;;;;;;21.03;62.21;100745.63;4934568;28;124028;-82
2022/09/08 07:52:15;;;;;;;10.70;5.65;;;;;;;21.07;62.26;100747.06;4946927;28;123266;-80
2022/09/08 07:54:53;;;;;;;8.50;5.72;;;;;;;21.09;62.31;100745.06;4951326;28;114147;-82
2022/09/08 07:57:48;;;;;;;9.65;5.97;;;;;;;21.11;62.11;100748.47;4952403;28;114165;-81
2022/09/08 08:00:43;;;;;;;9.85;5.80;;;;;;;21.14;62.17;100753.59;4947357;28;123946;-79
2022/09/08 08:03:50;;;;;;;12.15;6.43;;;;;;;21.16;62.06;100753.44;4943415;28;122905;-81
2022/09/08 08:06:34;;;;;;;10.80;6.18;;;;;;;21.19;62.05;100755.84;4962342;28;112898;-81
2022/09/08 08:09:16;;;;;;;9.45;6.65;;;;;;;21.22;62.13;100757.44;4960235;28;113334;-78
2022/09/08 08:12:00;;;;;;;11.88;7.35;;;;;;;21.27;62.21;100758.72;4956273;28;123292;-78
2022/09/08 08:14:51;;;;;;;12.30;6.80;;;;;;;21.34;62.05;100753.59;4958301;28;124054;-80
2022/09/08 08:17:46;;;;;;;11.38;8.00;;;;;;;21.44;62.16;100751.81;4959746;28;114873;-81
2022/09/08 08:20:16;;;;;;;;;;;;;;;21.47;61.71;100754.19;4942630;28;112561;-81
2022/09/08 08:22:59;;;;;;;10.98;9.00;;;;;;;21.57;62.02;100759.59;4954132;28;125273;-80
2022/09/08 08:25:38;;;;;;;10.15;8.00;;;;;;;21.62;61.66;100753.78;4973009;28;124654;-81
2022/09/08 08:28:19;;;;;;;10.52;7.90;;;;;;;21.66;61.57;100747.09;4946940;28;114642;-81
2022/09/08 08:31:04;;;;;;;12.00;8.35;;;;;;;21.69;61.48;100757.59;4947980;28;114535;-81
2022/09/08 08:33:36;;;;;;;13.13;8.68;;;;;;;21.75;61.62;100757.00;4958134;28;124818;-80
2022/09/08 08:36:05;;;;;;;12.57;8.70;;;;;;;21.83;61.79;100759.88;4947931;28;123720;-79
2022/09/08 08:39:08;;;;;;;11.38;9.25;;;;;;;21.96;62.28;100755.00;4941848;28;114541;-80
2022/09/08 08:41:57;;;;;;;13.13;9.63;;;;;;;22.12;61.96;100759.78;4950594;28;113797;-79
2022/09/08 08:45:06;;;;;;;11.57;8.45;;;;;;;22.20;61.25;100761.75;4973741;28;124473;-78
2022/09/08 08:48:17;;;;;;;12.70;7.93;;;;;;;22.27;61.01;100762.88;4957638;28;123737;-79
2022/09/08 08:51:11;;;;;;;13.33;8.57;;;;;;;22.37;60.77;100762.00;4958047;28;114835;-78
2022/09/08 08:54:09;;;;;;;10.32;7.95;;;;;;;22.44;60.67;100760.44;4941695;28;112976;-78
2022/09/08 08:56:44;;;;;;;11.15;7.40;;;;;;;22.46;60.24;100767.38;4942409;28;123558;-79
2022/09/08 08:59:37;;;;;;;9.50;7.40;;;;;;;22.47;59.97;100763.69;4973352;28;123083;-78
2022/09/08 09:02:41;;;;;;;9.32;6.45;;;;;;;22.48;59.90;100764.53;4968940;28;113755;-79
2022/09/08 09:05:31;;;;;;;10.48;6.57;;;;;;;22.46;59.64;100771.91;4942347;28;113383;-78
2022/09/08 09:08:31;;;;;;;8.00;6.30;;;;;;;22.41;59.29;100769.66;4946662;28;124779;-78
2022/09/08 09:11:23;;;;;;;8.30;6.20;;;;;;;22.37;59.19;100767.41;4941670;28;124082;-78
2022/09/08 09:14:06;;;;;;;9.63;5.05;;;;;;;22.33;59.09;100765.00;4945909;28;114342;-78
2022/09/08 09:16:48;;;;;;;8.80;5.22;;;;;;;22.37;59.38;100767.41;4938470;28;113472;-77
2022/09/08 09:19:50;;;;;;;8.98;5.18;;;;;;;22.43;59.30;100764.09;4947210;28;124912;-78
2022/09/08 09:22:32;;;;;;;9.60;5.22;;;;;;;22.45;59.21;100759.41;4952807;28;123582;-79
2022/09/08 09:25:17;;;;;;;9.50;4.82;;;;;;;22.52;59.28;100763.22;4939166;28;115141;-77
2022/09/08 09:27:46;;;;;;;;;;;;;;;22.58;59.42;100759.91;4942613;28;115403;-78
2022/09/08 09:30:22;;;;;;;8.15;4.40;;;;;;;22.69;59.25;100767.81;4955898;28;123966;-77
2022/09/08 09:33:21;;;;;;;5.13;3.70;;;;;;;22.73;58.48;100769.25;4937973;28;123823;-78
2022/09/08 09:36:27;;;;;;;5.47;3.80;;;;;;;22.71;58.01;100760.41;4943653;28;113679;-77
2022/09/08 09:39:24;;;;;;;5.85;4.03;;;;;;;22.65;57.71;100771.81;4942730;28;114551;-79
2022/09/08 09:42:31;;;;;;;7.47;4.43;;;;;;;22.65;57.96;100766.41;4948891;28;123926;-77
2022/09/08 09:45:33;;;;;;;5.70;4.28;;;;;;;22.70;58.03;100764.13;4935034;28;123585;-77
2022/09/08 09:48:14;;;;;;;5.07;4.35;;;;;;;22.79;58.10;100769.63;4948426;28;114195;-77
2022/09/08 09:50:44;;;;;;;4.30;2.70;;;;;;;22.85;57.84;100760.91;4966034;28;113826;-78
2022/09/08 09:53:29;;;;;;;3.08;2.28;;;;;;;22.92;57.79;100759.31;4941315;28;123165;-77
2022/09/08 09:56:28;;;;;;;5.20;2.50;;;;;;;22.96;57.31;100768.81;4948006;28;124127;-77
2022/09/08 09:59:32;;;;;;;3.22;2.08;;;;;;;23.01;57.60;100766.50;4950612;28;114272;-77
2022/09/08 10:02:39;;;;;;;2.72;2.03;;;;;;;23.06;56.74;100758.84;4950517;28;113970;-78
2022/09/08 10:05:44;;;;;;;3.75;1.80;;;;;;;23.12;56.61;100763.63;4934221;28;123619;-77
2022/09/08 10:08:40;;;;;;;4.18;1.98;;;;;;;23.22;56.57;100768.09;4963846;28;123811;-77
2022/09/08 10:11:33;;;;;;;3.33;2.08;;;;;;;23.31;56.77;100761.78;4965271;28;113257;-76
2022/09/08 10:14:34;;;;;;;4.85;1.55;;;;;;;23.45;56.46;100755.84;4951013;28;113885;-76
2022/09/08 10:17:06;;;;;;;3.03;1.63;;;;;;;23.57;56.06;100752.91;4939891;28;123745;-76
2022/09/08 10:20:08;;;;;;;3.05;1.80;;;;;;;23.63;55.77;100750.41;4949597;28;123091;-77
2022/09/08 10:22:55;;;;;;;4.07;1.90;;;;;;;23.68;55.57;100741.84;4939127;28;114318;-77
2022/09/08 10:26:00;;;;;;;3.22;1.65;;;;;;;23.77;55.73;100746.31;4937477;28;115541;-77
2022/09/08 10:28:58;;;;;;;5.38;1.92;;;;;;;23.92;55.56;100748.44;4933153;28;123479;-77
2022/09/08 10:31:56;;;;;;;3.83;1.40;;;;;;;24.03;55.39;100745.47;4952926;28;123747;-77
2022/09/08 10:34:29;;;;;;;3.53;1.63;;;;;;;24.18;54.87;100737.63;4941229;28;114153;-77
2022/09/08 10:37:02;;;;;;;3.20;1.60;;;;;;;24.29;54.08;100740.88;4950374;28;113747;-77
2022/09/08 10:40:10;;;;;;;4.75;1.50;;;;;;;24.37;53.80;100737.38;4950720;28;123233;-77
2022/09/08 10:42:49;;;;;;;6.05;1.40;;;;;;;24.44;53.39;100740.28;4959805;28;123211;-77
2022/09/08 10:45:29;;;;;;;4.30;1.60;;;;;;;24.46;53.06;100746.41;4947156;28;114710;-78
2022/09/08 10:48:34;;;;;;;4.57;1.70;;;;;;;24.43;53.12;100735.88;4952545;28;113580;-78
2022/09/08 10:51:31;;;;;;;4.05;1.75;;;;;;;24.43;53.02;100735.88;4935152;28;124149;-78
2022/09/08 10:54:35;;;;;;;5.05;1.67;;;;;;;24.45;52.82;100734.72;4949364;28;122923;-78
2022/09/08 10:57:29;;;;;;;5.80;1.52;;;;;;;24.51;53.16;100735.94;4949352;28;114388;-77
2022/09/08 11:00:12;;;;;;;4.25;1.40;;;;;;;24.61;52.86;100733.97;4948407;28;114225;-78
2022/09/08 11:02:48;;;;;;;5.25;1.65;;;;;;;24.72;52.28;100734.69;4936703;28;124323;-76
2022/09/08 11:05:30;;;;;;;6.60;1.33;;;;;;;24.79;51.69;100730.28;4940218;28;123721;-78
2022/09/08 11:08:28;;;;;;;4.50;1.27;;;;;;;24.89;52.07;100720.19;4935783;28;114666;-78
2022/09/08 11:11:23;;;;;;;4.15;1.20;;;;;;;24.98;51.45;100730.03;4932418;28;114118;-78
2022/09/08 11:14:01;;;;;;;5.00;1.50;;;;;;;25.08;50.82;100739.88;4932428;28;124622;-78
2022/09/08 11:16:59;;;;;;;3.65;1.13;;;;;;;25.13;50.49;100737.47;4935361;28;124191;-79
2022/09/08 11:19:39;;;;;;;6.53;1.27;;;;;;;25.18;50.46;100730.53;4931626;28;114983;-79
2022/09/08 11:22:33;;;;;;;5.35;1.17;;;;;;;25.23;49.95;100728.22;4920373;28;113882;-78
2022/09/08 11:25:13;;;;;;;5.75;1.10;;;;;;;25.27;49.57;100728.72;4953914;28;124117;-78
2022/09/08 11:28:07;;;;;;;5.85;1.30;;;;;;;25.28;49.01;100733.16;4935278;28;124032;-79
2022/09/08 11:30:44;;;;;;;4.32;1.40;;;;;;;25.30;48.76;100723.00;4937270;28;113943;-78
2022/09/08 11:33:55;;;;;;;4.80;1.40;;;;;;;25.32;48.87;100731.78;4921533;28;111752;-77
2022/09/08 11:36:52;;;;;;;6.18;1.23;;;;;;;25.38;48.95;100731.13;4942144;28;123415;-78
2022/09/08 11:39:34;;;;;;;5.40;1.30;;;;;;;25.43;48.59;100717.91;4944638;28;123526;-78
2022/09/08 11:42:09;;;;;;;4.60;1.30;;;;;;;25.50;48.89;100728.06;4946840;28;114209;-77
2022/09/08 11:44:41;;;;;;;6.57;1.30;;;;;;;25.59;48.53;100718.91;4952736;28;113788;-78
2022/09/08 11:47:27;;;;;;;4.95;1.40;;;;;;;25.71;48.82;100725.69;4958966;28;123575;-78
2022/09/08 11:50:18;;;;;;;7.35;1.70;;;;;;;25.79;48.00;100717.53;4923296;28;124748;-78
2022/09/08 11:53:43;;;;;;;2.90;1.17;;;;;;;25.79;47.75;100717.53;4950891;28;113387;-78
2022/09/08 11:56:49;;;;;;;4.93;1.38;;;;;;;25.81;47.77;100704.66;4933006;28;112627;-78
2022/09/08 11:59:54;;;;;;;3.95;1.20;;;;;;;25.92;47.83;100710.75;4958265;28;124225;-78
2022/09/08 12:02:40;;;;;;;4.63;1.30;;;;;;;26.04;47.86;100714.81;4958604;28;123925;-80
2022/09/08 12:05:26;;;;;;;3.92;1.35;;;;;;;26.17;47.59;100703.41;4953255;28;114671;-79
2022/09/08 12:08:33;;;;;;;5.28;1.20;;;;;;;26.30;46.98;100708.28;4949218;28;113863;-79
2022/09/08 12:11:12;;;;;;;3.00;1.08;;;;;;;26.39;47.00;100707.22;4948177;28;123723;-81